createdAt,value
2019-04-14T00:01:06.432Z,3.80
2019-04-14T00:03:43.318Z,3.80
2019-04-14T00:06:12.038Z,4.00
2019-04-14T00:08:41.588Z,4.47
2019-04-14T00:11:10.437Z,3.98
2019-04-14T00:13:39.314Z,5.08
2019-04-14T00:16:07.980Z,4.30
2019-04-14T00:18:36.666Z,4.62
2019-04-14T00:21:06.491Z,3.40
2019-04-14T00:23:35.375Z,3.83
2019-04-14T00:26:27.587Z,4.40
2019-04-14T00:28:57.768Z,4.83
2019-04-14T00:31:28.566Z,4.50
2019-04-14T00:33:59.002Z,4.70
2019-04-14T00:36:38.069Z,3.12
2019-04-14T00:39:18.300Z,4.92
2019-04-14T00:42:01.421Z,4.28
2019-04-14T00:44:39.106Z,4.58
2019-04-14T00:47:09.443Z,4.58
2019-04-14T00:49:38.159Z,4.15
2019-04-14T00:52:07.941Z,4.37
2019-04-14T00:54:37.068Z,5.80
2019-04-14T00:57:05.795Z,5.78
2019-04-14T00:59:35.457Z,6.55
2019-04-14T01:02:04.234Z,6.42
2019-04-14T01:04:33.768Z,6.90
2019-04-14T01:07:02.563Z,6.85
2019-04-14T01:09:31.183Z,6.42
2019-04-14T01:12:01.671Z,6.78
2019-04-14T01:14:31.923Z,6.30
2019-04-14T01:17:00.973Z,7.70
2019-04-14T01:19:30.862Z,6.62
2019-04-14T01:22:00.942Z,5.47
2019-04-14T01:24:29.756Z,6.28
2019-04-14T01:26:59.461Z,5.85
2019-04-14T01:29:29.660Z,5.58
2019-04-14T01:31:58.667Z,6.33
2019-04-14T01:34:28.158Z,5.85
2019-04-14T01:36:56.933Z,5.42
2019-04-14T01:39:26.517Z,5.20
2019-04-14T01:41:56.445Z,5.03
2019-04-14T01:44:26.431Z,5.22
2019-04-14T01:46:56.500Z,4.97
2019-04-14T01:49:26.804Z,4.90
2019-04-14T01:52:06.395Z,5.08
2019-04-14T01:54:39.402Z,4.83
2019-04-14T01:57:26.364Z,4.83
2019-04-14T01:59:56.692Z,4.55
2019-04-14T02:02:27.130Z,4.97
2019-04-14T02:04:55.805Z,5.10
2019-04-14T02:07:25.526Z,5.15
2019-04-14T02:09:55.355Z,4.93
2019-04-14T02:12:25.432Z,4.33
2019-04-14T02:14:54.512Z,4.03
2019-04-14T02:17:24.222Z,4.28
2019-04-14T02:19:54.526Z,4.03
2019-04-14T02:22:24.546Z,4.12
2019-04-14T02:24:54.808Z,3.50
2019-04-14T02:27:25.239Z,3.60
2019-04-14T02:29:54.267Z,3.70
2019-04-14T02:32:51.486Z,3.50
2019-04-14T02:35:21.464Z,3.77
2019-04-14T02:37:58.564Z,3.70
2019-04-14T02:43:03.918Z,4.33
2019-04-14T02:50:17.202Z,3.90
2019-04-14T02:53:01.204Z,3.77
2019-04-14T02:55:19.082Z,3.42
2019-04-14T02:57:57.276Z,4.00
2019-04-14T03:00:25.779Z,3.75
2019-04-14T03:02:47.483Z,3.50
2019-04-14T03:05:32.101Z,4.67
2019-04-14T03:07:53.634Z,3.90
2019-04-14T03:10:24.597Z,3.55
2019-04-14T03:12:58.634Z,3.42
2019-04-14T03:15:23.998Z,3.83
2019-04-14T03:18:24.004Z,3.17
2019-04-14T03:20:47.552Z,3.65
2019-04-14T03:23:44.201Z,3.52
2019-04-14T03:26:15.505Z,4.40
2019-04-14T03:31:37.571Z,5.47
2019-04-14T03:36:58.827Z,5.00
2019-04-14T03:38:58.872Z,5.10
2019-04-14T03:43:50.033Z,9.15
2019-04-14T03:46:25.451Z,9.08
2019-04-14T03:51:26.242Z,8.83
2019-04-14T03:53:53.526Z,7.35
2019-04-14T03:56:07.153Z,9.08
2019-04-14T03:58:33.586Z,7.05
2019-04-14T04:01:02.443Z,6.10
2019-04-14T04:03:32.414Z,5.92
2019-04-14T04:06:01.331Z,5.08
2019-04-14T04:08:31.189Z,5.60
2019-04-14T04:11:02.021Z,4.67
2019-04-14T04:16:00.534Z,4.40
2019-04-14T04:18:30.895Z,4.78
2019-04-14T04:26:38.551Z,3.52
2019-04-14T04:29:17.979Z,3.65
2019-04-14T04:31:54.727Z,3.75
2019-04-14T04:34:25.151Z,3.47
2019-04-14T04:37:04.517Z,3.20
2019-04-14T04:39:38.610Z,3.02
2019-04-14T04:42:09.011Z,2.90
2019-04-14T04:44:38.039Z,2.80
2019-04-14T04:47:07.727Z,3.17
2019-04-14T04:49:36.656Z,2.97
2019-04-14T04:52:06.253Z,2.98
2019-04-14T04:54:36.317Z,2.90
2019-04-14T04:57:06.665Z,2.55
2019-04-14T04:59:36.734Z,2.87
2019-04-14T05:02:05.591Z,3.08
2019-04-14T05:04:35.104Z,3.55
2019-04-14T05:07:05.594Z,3.10
2019-04-14T05:09:39.019Z,3.33
2019-04-14T05:15:03.550Z,3.52
2019-04-14T05:17:34.446Z,2.83
2019-04-14T05:20:03.358Z,2.95
2019-04-14T05:22:33.178Z,2.77
2019-04-14T05:25:02.163Z,2.55
2019-04-14T05:27:31.965Z,2.70
2019-04-14T05:30:00.815Z,2.83
2019-04-14T05:32:30.532Z,2.72
2019-04-14T05:35:00.645Z,2.47
2019-04-14T05:37:31.067Z,2.75
2019-04-14T05:40:00.071Z,2.87
2019-04-14T05:42:30.065Z,2.75
2019-04-14T05:45:00.001Z,2.92
2019-04-14T05:47:28.938Z,2.75
2019-04-14T05:49:58.917Z,3.47
2019-04-14T05:52:28.083Z,2.85
2019-04-14T05:54:57.859Z,2.75
2019-04-14T05:57:30.590Z,2.80
2019-04-14T05:59:59.451Z,2.58
2019-04-14T06:02:30.244Z,2.30
2019-04-14T06:04:59.339Z,2.52
2019-04-14T06:07:28.187Z,2.37
2019-04-14T06:09:57.151Z,2.80
2019-04-14T06:12:25.836Z,2.12
2019-04-14T06:14:56.057Z,2.62
2019-04-14T06:17:24.742Z,2.60
2019-04-14T06:19:53.434Z,2.17
2019-04-14T06:22:22.141Z,2.70
2019-04-14T06:24:50.818Z,2.98
2019-04-14T06:27:19.518Z,3.00
2019-04-14T06:29:49.770Z,3.05
2019-04-14T06:32:25.926Z,2.85
2019-04-14T06:35:12.526Z,2.50
2019-04-14T06:37:45.531Z,2.60
2019-04-14T06:40:14.204Z,2.50
2019-04-14T06:42:42.883Z,2.45
2019-04-14T06:45:11.553Z,2.67
2019-04-14T06:47:40.263Z,3.02
2019-04-14T06:50:08.964Z,2.70
2019-04-14T06:52:37.609Z,2.60
2019-04-14T06:55:06.562Z,2.42
2019-04-14T06:57:35.238Z,3.00
2019-04-14T07:00:03.915Z,2.80
2019-04-14T07:02:32.574Z,2.95
2019-04-14T07:05:01.287Z,2.80
2019-04-14T07:07:30.017Z,2.77
2019-04-14T07:09:58.707Z,2.45
2019-04-14T07:12:27.464Z,2.80
2019-04-14T07:14:56.239Z,2.85
2019-04-14T07:17:24.946Z,2.67
2019-04-14T07:20:01.812Z,2.90
2019-04-14T07:22:24.114Z,2.37
2019-04-14T07:24:52.801Z,2.42
2019-04-14T07:27:21.587Z,2.12
2019-04-14T07:29:54.777Z,2.70
2019-04-14T07:32:27.837Z,2.08
2019-04-14T07:35:04.117Z,2.30
2019-04-14T07:37:34.399Z,2.40
2019-04-14T07:40:07.393Z,1.77
2019-04-14T07:42:40.315Z,2.60
2019-04-14T07:45:13.538Z,2.25
2019-04-14T07:48:01.597Z,1.50
2019-04-14T07:50:37.779Z,2.50
2019-04-14T07:53:24.494Z,2.75
2019-04-14T07:56:03.571Z,1.82
2019-04-14T07:58:36.594Z,2.10
2019-04-14T08:01:09.570Z,2.00
2019-04-14T08:03:42.559Z,2.33
2019-04-14T08:06:11.618Z,2.08
2019-04-14T08:08:40.347Z,2.40
2019-04-14T08:11:09.018Z,2.10
2019-04-14T08:13:37.678Z,2.17
2019-04-14T08:16:06.372Z,1.62
2019-04-14T08:18:35.038Z,1.77
2019-04-14T08:21:03.732Z,1.45
2019-04-14T08:23:32.396Z,1.85
2019-04-14T08:26:01.103Z,1.45
2019-04-14T08:28:29.813Z,1.15
2019-04-14T08:30:58.507Z,1.60
2019-04-14T08:33:27.163Z,1.30
2019-04-14T08:35:55.902Z,1.10
2019-04-14T08:38:24.622Z,1.20
2019-04-14T08:40:53.319Z,2.17
2019-04-14T08:43:40.058Z,1.10
2019-04-14T08:46:10.304Z,1.20
2019-04-14T08:48:56.762Z,1.17
2019-04-14T08:51:27.021Z,1.30
2019-04-14T08:53:57.287Z,1.45
2019-04-14T08:56:33.593Z,1.15
2019-04-14T08:59:03.842Z,1.30
2019-04-14T09:01:39.978Z,1.30
2019-04-14T09:04:19.200Z,1.12
2019-04-14T09:06:55.640Z,1.07
2019-04-14T09:09:25.925Z,1.25
2019-04-14T09:14:56.306Z,0.85
2019-04-14T09:17:16.521Z,1.10
2019-04-14T09:19:45.541Z,1.60
2019-04-14T09:22:14.200Z,1.10
2019-04-14T09:24:42.888Z,1.20
2019-04-14T09:27:11.603Z,1.07
2019-04-14T09:29:40.327Z,1.20
2019-04-14T09:32:10.816Z,0.80
2019-04-14T09:34:39.483Z,1.32
2019-04-14T09:37:08.179Z,0.80
2019-04-14T09:39:36.590Z,1.12
2019-04-14T09:42:05.051Z,1.30
2019-04-14T09:44:33.499Z,1.22
2019-04-14T09:47:01.921Z,1.00
2019-04-14T09:49:30.393Z,1.30
2019-04-14T09:51:58.912Z,1.40
2019-04-14T09:54:27.584Z,2.02
2019-04-14T09:56:56.305Z,2.92
2019-04-14T09:59:24.998Z,4.22
2019-04-14T10:01:53.728Z,2.72
2019-04-14T10:04:22.380Z,2.30
2019-04-14T10:06:51.155Z,2.50
2019-04-14T10:09:19.905Z,1.98
2019-04-14T10:11:52.404Z,1.80
2019-04-14T10:14:18.909Z,1.77
2019-04-14T10:16:47.583Z,2.10
2019-04-14T10:19:16.269Z,2.02
2019-04-14T10:21:44.963Z,5.58
2019-04-14T10:24:13.664Z,5.22
2019-04-14T10:26:42.349Z,5.10
2019-04-14T10:29:11.063Z,5.28
2019-04-14T10:31:39.728Z,7.83
2019-04-14T10:34:09.904Z,7.12
2019-04-14T10:36:38.738Z,5.20
2019-04-14T10:39:07.735Z,3.58
2019-04-14T10:41:36.424Z,3.00
2019-04-14T10:44:05.219Z,4.53
2019-04-14T10:46:33.932Z,3.62
2019-04-14T10:49:02.733Z,2.52
2019-04-14T10:51:34.068Z,1.45
2019-04-14T10:56:30.331Z,2.15
2019-04-14T10:58:59.010Z,1.67
2019-04-14T11:01:27.836Z,1.85
2019-04-14T11:03:56.555Z,1.80
2019-04-14T11:06:29.310Z,1.57
2019-04-14T11:08:58.103Z,1.60
2019-04-14T11:11:26.812Z,1.25
2019-04-14T11:13:55.516Z,1.50
2019-04-14T11:16:24.193Z,1.90
2019-04-14T11:18:53.003Z,1.92
2019-04-14T11:21:21.706Z,1.40
2019-04-14T11:23:50.415Z,1.90
2019-04-14T11:26:19.064Z,1.67
2019-04-14T11:28:47.843Z,1.40
2019-04-14T11:31:18.108Z,1.90
2019-04-14T11:34:00.061Z,3.45
2019-04-14T11:37:06.075Z,3.35
2019-04-14T11:39:34.748Z,3.30
2019-04-14T11:42:03.460Z,4.00
2019-04-14T11:44:32.122Z,2.30
2019-04-14T11:47:00.807Z,1.87
2019-04-14T11:49:29.475Z,3.05
2019-04-14T11:51:58.212Z,1.75
2019-04-14T11:54:26.887Z,3.17
2019-04-14T11:56:55.595Z,2.90
2019-04-14T11:59:25.846Z,3.17
2019-04-14T12:02:04.949Z,2.58
2019-04-14T12:04:44.112Z,1.40
2019-04-14T12:07:17.339Z,2.05
2019-04-14T12:09:47.603Z,1.30
2019-04-14T12:12:16.295Z,1.60
2019-04-14T12:14:44.957Z,1.17
2019-04-14T12:17:13.642Z,1.85
2019-04-14T12:19:42.340Z,1.42
2019-04-14T12:22:11.027Z,1.22
2019-04-14T12:24:39.719Z,1.37
2019-04-14T12:27:08.433Z,1.60
2019-04-14T12:29:37.128Z,1.52
2019-04-14T12:32:06.440Z,1.30
2019-04-14T12:34:35.109Z,2.00
2019-04-14T12:37:04.471Z,1.77
2019-04-14T12:39:33.155Z,1.80
2019-04-14T12:42:12.548Z,2.30
2019-04-14T12:44:42.815Z,1.40
2019-04-14T12:47:19.126Z,1.80
2019-04-14T12:49:49.367Z,1.80
2019-04-14T12:52:22.035Z,1.80
2019-04-14T12:54:49.966Z,2.60
2019-04-14T12:57:20.257Z,5.30
2019-04-14T12:59:48.936Z,1.87
2019-04-14T13:02:19.171Z,1.70
2019-04-14T13:04:47.883Z,1.45
2019-04-14T13:07:16.564Z,1.60
2019-04-14T13:09:45.248Z,2.00
2019-04-14T13:12:13.913Z,1.65
2019-04-14T13:14:42.600Z,2.10
2019-04-14T13:17:11.288Z,1.85
2019-04-14T13:19:40.003Z,3.62
2019-04-14T13:22:08.703Z,2.10
2019-04-14T13:24:37.414Z,3.08
2019-04-14T13:27:06.091Z,4.05
2019-04-14T13:29:34.788Z,2.47
2019-04-14T13:32:03.807Z,2.00
2019-04-14T13:34:32.471Z,3.12
2019-04-14T13:37:01.160Z,3.05
2019-04-14T13:39:29.875Z,1.92
2019-04-14T13:41:58.563Z,2.20
2019-04-14T13:44:27.293Z,3.47
2019-04-14T13:46:55.953Z,2.70
2019-04-14T13:49:24.681Z,8.75
2019-04-14T13:51:53.394Z,8.65
2019-04-14T13:54:22.114Z,16.87
2019-04-14T13:56:50.908Z,12.13
2019-04-14T13:59:19.577Z,7.92
2019-04-14T14:01:48.251Z,8.70
2019-04-14T14:04:17.031Z,13.60
2019-04-14T14:06:45.667Z,9.20
2019-04-14T14:09:14.392Z,9.25
2019-04-14T14:11:44.696Z,10.72
2019-04-14T14:14:14.959Z,7.40
2019-04-14T14:16:45.213Z,11.03
2019-04-14T14:19:30.193Z,10.55
2019-04-14T14:22:06.217Z,11.43
2019-04-14T14:24:45.518Z,12.58
2019-04-14T14:27:14.207Z,11.15
2019-04-14T14:29:42.901Z,11.65
2019-04-14T14:32:13.174Z,12.10
2019-04-14T14:34:41.892Z,12.93
2019-04-14T14:37:10.606Z,13.50
2019-04-14T14:39:39.308Z,13.55
2019-04-14T14:42:07.999Z,10.80
2019-04-14T14:44:50.350Z,11.78
2019-04-14T14:47:20.595Z,14.50
2019-04-14T14:50:06.140Z,15.28
2019-04-14T14:52:36.475Z,14.75
2019-04-14T14:55:06.961Z,17.48
2019-04-14T14:57:35.659Z,19.57
2019-04-14T15:00:09.931Z,21.73
2019-04-14T15:02:38.611Z,14.33
2019-04-14T15:05:07.290Z,12.43
2019-04-14T15:07:35.985Z,10.48
2019-04-14T15:10:06.649Z,8.08
2019-04-14T15:12:35.377Z,7.75
2019-04-14T15:15:06.477Z,8.40
2019-04-14T15:17:35.212Z,5.60
2019-04-14T15:20:04.464Z,7.25
2019-04-14T15:22:33.144Z,6.70
2019-04-14T15:25:01.848Z,4.47
2019-04-14T15:27:30.527Z,6.53
2019-04-14T15:29:59.219Z,6.15
2019-04-14T15:32:27.905Z,6.20
2019-04-14T15:34:56.618Z,6.00
2019-04-14T15:37:25.336Z,5.60
2019-04-14T15:39:54.010Z,6.15
2019-04-14T15:42:22.695Z,8.18
2019-04-14T15:44:51.378Z,8.20
2019-04-14T15:47:20.045Z,7.67
2019-04-14T15:49:48.756Z,7.42
2019-04-14T15:52:17.444Z,7.72
2019-04-14T15:54:46.166Z,6.80
2019-04-14T15:57:16.410Z,5.30
2019-04-14T15:59:46.661Z,6.75
2019-04-14T16:02:19.673Z,5.40
2019-04-14T16:05:02.037Z,5.50
2019-04-14T16:07:35.019Z,4.85
2019-04-14T16:10:06.874Z,5.08
2019-04-14T16:12:39.883Z,4.72
2019-04-14T16:15:10.231Z,4.90
2019-04-14T16:17:40.463Z,4.28
2019-04-14T16:20:13.751Z,6.83
2019-04-14T16:22:42.428Z,5.22
2019-04-14T16:25:11.120Z,5.45
2019-04-14T16:27:41.384Z,7.33
2019-04-14T16:30:17.349Z,8.30
2019-04-14T16:32:50.576Z,8.05
2019-04-14T16:35:20.796Z,10.45
2019-04-14T16:37:49.491Z,12.80
2019-04-14T16:40:18.188Z,15.13
2019-04-14T16:42:46.895Z,13.18
2019-04-14T16:45:17.171Z,12.28
2019-04-14T16:47:45.827Z,12.43
2019-04-14T16:50:14.541Z,12.13
2019-04-14T16:52:44.776Z,10.65
2019-04-14T16:55:22.587Z,11.50
2019-04-14T16:57:59.114Z,12.60
2019-04-14T17:00:29.406Z,20.92
2019-04-14T17:02:58.105Z,32.13
2019-04-14T17:05:26.783Z,37.08
2019-04-14T17:07:55.551Z,39.23
2019-04-14T17:10:24.273Z,34.58
2019-04-14T17:12:52.951Z,37.70
2019-04-14T17:15:32.224Z,40.55
2019-04-14T17:18:07.983Z,36.75
2019-04-14T17:20:38.281Z,29.50
2019-04-14T17:23:24.563Z,30.97
2019-04-14T17:26:11.011Z,27.27
2019-04-14T17:31:22.855Z,22.73
2019-04-14T17:34:03.713Z,18.87
2019-04-14T17:36:33.942Z,15.05
2019-04-14T17:39:16.084Z,13.93
2019-04-14T17:41:55.383Z,14.23
2019-04-14T17:44:28.074Z,22.05
2019-04-14T17:47:04.042Z,20.52
2019-04-14T17:49:42.809Z,23.77
2019-04-14T17:52:28.280Z,22.40
2019-04-14T17:55:16.716Z,21.23
2019-04-14T18:00:45.121Z,18.85
2019-04-14T18:03:33.651Z,18.50
2019-04-14T18:09:28.748Z,15.32
2019-04-14T18:12:04.461Z,14.68
2019-04-14T18:14:40.761Z,13.22
2019-04-14T18:17:26.035Z,12.68
2019-04-14T18:19:56.263Z,13.93
2019-04-14T18:22:24.997Z,13.32
2019-04-14T18:24:53.747Z,13.30
2019-04-14T18:27:22.464Z,12.23
2019-04-14T18:30:01.538Z,12.98
2019-04-14T18:32:31.804Z,11.70
2019-04-14T18:35:02.072Z,11.12
2019-04-14T18:37:32.359Z,10.60
2019-04-14T18:40:11.443Z,11.00
2019-04-14T18:42:58.093Z,10.88
2019-04-14T18:45:44.535Z,10.93
2019-04-14T18:51:21.160Z,12.07
2019-04-14T18:53:57.393Z,11.75
2019-04-14T18:56:30.592Z,13.98
2019-04-14T18:59:03.614Z,15.10
2019-04-14T19:01:33.848Z,16.57
2019-04-14T19:04:02.583Z,16.82
2019-04-14T19:06:31.427Z,17.67
2019-04-14T19:09:00.183Z,16.02
2019-04-14T19:11:45.512Z,16.15
2019-04-14T19:14:15.853Z,15.23
2019-04-14T19:16:46.107Z,13.18
2019-04-14T19:19:16.103Z,10.13
2019-04-14T19:21:44.530Z,14.38
2019-04-14T19:24:12.946Z,12.85
2019-04-14T19:26:41.426Z,13.93
2019-04-14T19:29:09.839Z,13.80
2019-04-14T19:31:39.250Z,14.20
2019-04-14T19:34:07.718Z,14.00
2019-04-14T19:36:36.371Z,13.28
2019-04-14T19:39:07.197Z,13.35
2019-04-14T19:44:03.394Z,12.33
2019-04-14T19:46:31.864Z,13.68
2019-04-14T19:49:00.265Z,13.75
2019-04-14T19:51:28.757Z,13.28
2019-04-14T19:53:57.182Z,13.58
2019-04-14T19:56:25.624Z,13.90
2019-04-14T19:58:54.103Z,14.78
2019-04-14T20:01:22.499Z,13.55
2019-04-14T20:03:50.935Z,14.23
2019-04-14T20:06:19.376Z,14.40
2019-04-14T20:08:47.799Z,15.08
2019-04-14T20:11:16.217Z,14.07
2019-04-14T20:13:46.471Z,15.63
2019-04-14T20:16:18.880Z,13.78
2019-04-14T20:18:51.347Z,14.45
2019-04-14T20:21:37.590Z,13.13
2019-04-14T20:24:19.963Z,13.35
2019-04-14T20:29:59.665Z,11.53
2019-04-14T20:32:32.114Z,11.75
2019-04-14T20:35:00.566Z,11.78
2019-04-14T20:37:28.982Z,11.57
2019-04-14T20:39:57.414Z,10.93
2019-04-14T20:42:25.849Z,12.07
2019-04-14T20:44:54.415Z,11.10
2019-04-14T20:47:22.858Z,11.45
2019-04-14T20:49:51.328Z,10.45
2019-04-14T20:52:19.731Z,9.95
2019-04-14T20:54:48.170Z,10.05
2019-04-14T20:57:16.608Z,9.35
2019-04-14T20:59:45.018Z,9.35
2019-04-14T21:02:30.327Z,7.33
2019-04-14T21:05:00.299Z,8.05
2019-04-14T21:07:38.947Z,7.67
2019-04-14T21:10:26.895Z,7.95
2019-04-14T21:13:02.662Z,6.65
2019-04-14T21:15:41.325Z,7.75
2019-04-14T21:18:14.301Z,6.42
2019-04-14T21:20:44.294Z,6.42
2019-04-14T21:23:20.510Z,6.00
2019-04-14T21:26:00.525Z,5.80
2019-04-14T21:28:31.576Z,5.45
2019-04-14T21:31:10.866Z,5.90
2019-04-14T21:33:55.565Z,6.22
2019-04-14T21:36:25.548Z,5.78
2019-04-14T21:38:58.625Z,5.97
2019-04-14T21:41:28.634Z,6.00
2019-04-14T21:43:57.134Z,5.92
2019-04-14T21:46:25.544Z,6.10
2019-04-14T21:48:54.007Z,5.53
2019-04-14T21:51:24.025Z,5.15
2019-04-14T21:53:52.455Z,5.28
2019-04-14T21:56:21.574Z,6.62
2019-04-14T21:58:51.592Z,6.97
2019-04-14T22:01:23.476Z,5.78
2019-04-14T22:04:11.654Z,6.30
2019-04-14T22:06:41.677Z,5.60
2019-04-14T22:09:11.674Z,5.42
2019-04-14T22:11:40.087Z,4.90
2019-04-14T22:14:08.498Z,4.55
2019-04-14T22:16:37.034Z,5.00
2019-04-14T22:19:05.488Z,5.00
2019-04-14T22:21:33.903Z,3.95
2019-04-14T22:24:02.451Z,4.12
2019-04-14T22:26:30.888Z,4.97
2019-04-14T22:29:02.083Z,4.00
2019-04-14T22:31:29.387Z,4.58
2019-04-14T22:33:57.807Z,4.10
2019-04-14T22:36:26.246Z,4.70
2019-04-14T22:38:54.696Z,5.05
2019-04-14T22:41:23.119Z,5.95
2019-04-14T22:43:51.559Z,5.87
2019-04-14T22:46:19.971Z,6.00
2019-04-14T22:48:48.403Z,4.47
2019-04-14T22:51:16.807Z,5.17
2019-04-14T22:53:45.279Z,4.78
2019-04-14T22:56:13.678Z,3.92
2019-04-14T22:58:42.129Z,4.03
2019-04-14T23:01:12.154Z,3.70
2019-04-14T23:03:44.851Z,4.10
2019-04-14T23:06:26.831Z,3.75
2019-04-14T23:09:08.561Z,4.20
2019-04-14T23:11:47.039Z,3.35
2019-04-14T23:14:25.862Z,4.20
2019-04-14T23:16:55.832Z,3.80
2019-04-14T23:19:34.782Z,3.95
2019-04-14T23:22:07.457Z,3.87
2019-04-14T23:24:37.453Z,3.70
2019-04-14T23:27:05.859Z,3.55
2019-04-14T23:29:34.327Z,3.83
2019-04-14T23:32:03.194Z,3.37
2019-04-14T23:34:31.605Z,3.12
2019-04-14T23:37:00.035Z,3.05
2019-04-14T23:39:28.440Z,3.02
2019-04-14T23:41:56.866Z,2.47
2019-04-14T23:44:25.271Z,2.55
2019-04-14T23:46:53.728Z,3.15
2019-04-14T23:49:22.128Z,2.87
2019-04-14T23:51:50.556Z,2.98
2019-04-14T23:54:18.998Z,2.98
2019-04-14T23:56:47.414Z,2.83
2019-04-14T23:59:15.826Z,2.72
